createdAt,value
2019-06-07T00:02:18.770Z,9.53
2019-06-07T00:04:46.893Z,8.83
2019-06-07T00:07:16.965Z,8.97
2019-06-07T00:09:44.355Z,10.00
2019-06-07T00:12:14.075Z,9.43
2019-06-07T00:14:41.806Z,9.53
2019-06-07T00:17:12.529Z,8.87
2019-06-07T00:19:39.273Z,10.80
2019-06-07T00:22:16.595Z,10.97
2019-06-07T00:24:36.734Z,10.20
2019-06-07T00:27:04.791Z,10.27
2019-06-07T00:29:32.560Z,9.70
2019-06-07T00:32:00.375Z,9.60
2019-06-07T00:34:28.262Z,11.00
2019-06-07T00:36:56.187Z,9.90
2019-06-07T00:39:25.973Z,10.23
2019-06-07T00:41:53.616Z,10.70
2019-06-07T00:44:23.189Z,10.97
2019-06-07T00:46:51.072Z,12.67
2019-06-07T00:49:33.437Z,11.70
2019-06-07T00:51:51.654Z,11.60
2019-06-07T00:54:21.499Z,12.00
2019-06-07T00:56:47.897Z,11.57
2019-06-07T00:59:18.576Z,11.47
2019-06-07T01:01:45.354Z,11.93
2019-06-07T01:04:15.610Z,12.67
2019-06-07T01:06:42.793Z,11.17
2019-06-07T01:09:10.604Z,11.60
2019-06-07T01:11:38.362Z,11.33
2019-06-07T01:14:06.173Z,12.80
2019-06-07T01:16:55.447Z,12.80
2019-06-07T01:19:04.444Z,12.10
2019-06-07T01:21:32.270Z,11.47
2019-06-07T01:24:11.473Z,10.97
2019-06-07T01:26:30.542Z,11.17
2019-06-07T01:28:58.453Z,11.60
2019-06-07T01:31:28.516Z,12.07
2019-06-07T01:33:55.930Z,11.83
2019-06-07T01:36:27.500Z,11.70
2019-06-07T01:38:53.388Z,12.57
2019-06-07T01:41:23.659Z,11.40
2019-06-07T01:43:50.885Z,11.77
2019-06-07T01:46:20.598Z,12.20
2019-06-07T01:48:49.800Z,11.87
2019-06-07T01:51:18.932Z,12.50
2019-06-07T01:53:47.676Z,13.67
2019-06-07T01:56:18.390Z,12.23
2019-06-07T01:58:45.212Z,13.27
2019-06-07T02:01:13.013Z,13.03
2019-06-07T02:03:40.786Z,14.60
2019-06-07T02:06:10.415Z,13.57
2019-06-07T02:08:38.242Z,13.97
2019-06-07T02:11:06.045Z,12.60
2019-06-07T02:13:33.833Z,12.70
2019-06-07T02:16:01.640Z,13.60
2019-06-07T02:18:34.698Z,11.63
2019-06-07T02:21:00.973Z,11.73
2019-06-07T02:23:33.049Z,12.53
2019-06-07T02:25:58.475Z,10.97
2019-06-07T02:28:34.642Z,9.60
2019-06-07T02:30:59.992Z,10.83
2019-06-07T02:33:29.020Z,10.47
2019-06-07T02:35:55.469Z,12.40
2019-06-07T02:38:27.659Z,11.67
2019-06-07T02:40:52.946Z,11.10
2019-06-07T02:43:22.086Z,11.70
2019-06-07T02:45:49.913Z,10.13
2019-06-07T02:48:17.692Z,10.40
2019-06-07T02:50:45.657Z,10.57
2019-06-07T02:53:13.437Z,11.53
2019-06-07T02:56:32.860Z,11.87
2019-06-07T02:58:10.974Z,13.10
2019-06-07T03:01:05.664Z,13.43
2019-06-07T03:03:17.501Z,14.77
2019-06-07T03:05:46.068Z,14.03
2019-06-07T03:08:15.616Z,16.00
2019-06-07T03:10:46.433Z,15.60
2019-06-07T03:13:18.797Z,17.27
2019-06-07T03:15:50.327Z,16.27
2019-06-07T03:18:41.221Z,16.60
2019-06-07T03:21:13.239Z,16.03
2019-06-07T03:23:41.176Z,16.67
2019-06-07T03:26:08.946Z,15.80
2019-06-07T03:28:37.954Z,15.90
2019-06-07T03:31:06.616Z,14.37
2019-06-07T03:33:41.492Z,14.97
2019-06-07T03:36:22.669Z,16.00
2019-06-07T03:38:35.256Z,14.67
2019-06-07T03:41:04.049Z,14.90
2019-06-07T03:43:34.963Z,13.90
2019-06-07T03:46:01.511Z,13.50
2019-06-07T03:48:30.664Z,15.00
2019-06-07T03:51:04.578Z,15.63
2019-06-07T03:53:29.700Z,11.93
2019-06-07T03:55:58.411Z,14.90
2019-06-07T03:58:31.959Z,14.10
2019-06-07T04:00:57.136Z,12.93
2019-06-07T04:03:36.998Z,14.60
2019-06-07T04:05:55.252Z,15.60
2019-06-07T04:08:23.024Z,14.90
2019-06-07T04:10:59.865Z,13.87
2019-06-07T04:13:20.534Z,15.90
2019-06-07T04:15:48.531Z,13.93
2019-06-07T04:18:16.535Z,16.20
2019-06-07T04:20:44.368Z,14.40
2019-06-07T04:23:27.661Z,16.73
2019-06-07T04:25:42.614Z,12.90
2019-06-07T04:28:10.747Z,15.80
2019-06-07T04:30:42.669Z,15.00
2019-06-07T04:33:11.646Z,15.53
2019-06-07T04:35:42.540Z,15.67
2019-06-07T04:38:10.191Z,14.37
2019-06-07T04:40:39.969Z,14.43
2019-06-07T04:43:08.223Z,16.57
2019-06-07T04:45:41.849Z,15.60
2019-06-07T04:48:06.901Z,15.47
2019-06-07T04:50:38.278Z,13.30
2019-06-07T04:53:06.735Z,13.13
2019-06-07T04:55:36.619Z,12.40
2019-06-07T04:58:05.047Z,11.90
2019-06-07T05:00:49.699Z,14.20
2019-06-07T05:03:04.880Z,12.37
2019-06-07T05:05:34.549Z,13.80
2019-06-07T05:08:07.399Z,13.53
2019-06-07T05:10:35.179Z,15.70
2019-06-07T05:13:02.770Z,15.00
2019-06-07T05:15:32.259Z,15.97
2019-06-07T05:18:00.034Z,17.73
2019-06-07T05:20:27.869Z,15.30
2019-06-07T05:22:55.650Z,16.80
2019-06-07T05:25:23.439Z,17.10
2019-06-07T05:27:51.257Z,18.00
2019-06-07T05:33:05.204Z,18.40
2019-06-07T05:35:33.291Z,18.37
2019-06-07T05:38:02.614Z,17.77
2019-06-07T05:40:39.244Z,17.37
2019-06-07T05:43:07.254Z,18.13
2019-06-07T05:45:39.285Z,15.77
2019-06-07T05:48:07.393Z,16.67
2019-06-07T05:50:44.856Z,16.80
2019-06-07T05:53:05.964Z,16.57
2019-06-07T05:55:35.288Z,17.63
2019-06-07T05:58:03.270Z,16.47
2019-06-07T06:00:31.383Z,15.83
2019-06-07T06:03:05.408Z,15.40
2019-06-07T06:05:34.552Z,15.30
2019-06-07T06:07:58.596Z,13.63
2019-06-07T06:10:26.401Z,11.87
2019-06-07T06:12:54.176Z,13.30
2019-06-07T06:15:41.587Z,12.07
2019-06-07T06:17:53.735Z,12.50
2019-06-07T06:20:22.122Z,11.40
2019-06-07T06:22:51.139Z,11.20
2019-06-07T06:25:34.730Z,12.53
2019-06-07T06:28:09.918Z,13.50
2019-06-07T06:30:19.355Z,12.47
2019-06-07T06:32:54.970Z,10.93
2019-06-07T06:35:18.733Z,11.30
2019-06-07T06:37:52.737Z,11.10
2019-06-07T06:40:16.528Z,11.10
2019-06-07T06:42:45.455Z,10.77
2019-06-07T06:45:16.349Z,11.93
2019-06-07T06:47:47.707Z,12.23
2019-06-07T06:50:13.937Z,13.07
2019-06-07T06:52:45.133Z,13.23
2019-06-07T06:55:11.740Z,14.10
2019-06-07T06:57:41.476Z,11.47
2019-06-07T07:00:10.491Z,11.70
2019-06-07T07:03:27.041Z,10.40
2019-06-07T07:05:09.032Z,9.73
2019-06-07T07:07:36.811Z,10.23
2019-06-07T07:10:06.217Z,9.80
2019-06-07T07:12:33.982Z,8.53
2019-06-07T07:15:01.803Z,8.03
2019-06-07T07:17:47.786Z,7.90
2019-06-07T07:19:59.429Z,9.43
2019-06-07T07:22:27.208Z,8.93
2019-06-07T07:24:55.109Z,7.77
2019-06-07T07:27:22.979Z,10.30
2019-06-07T07:30:10.217Z,11.40
2019-06-07T07:32:20.531Z,10.10
2019-06-07T07:34:51.481Z,10.50
2019-06-07T07:37:17.974Z,9.40
2019-06-07T07:39:48.680Z,10.40
2019-06-07T07:42:21.334Z,10.30
2019-06-07T07:44:47.188Z,9.47
2019-06-07T07:47:15.031Z,9.40
2019-06-07T07:49:44.704Z,9.07
2019-06-07T07:52:12.464Z,9.97
2019-06-07T07:54:40.244Z,9.83
2019-06-07T07:57:08.027Z,9.53
2019-06-07T07:59:44.013Z,9.90
2019-06-07T08:02:05.554Z,7.27
2019-06-07T08:05:12.928Z,8.07
2019-06-07T08:07:03.165Z,9.50
2019-06-07T08:09:30.971Z,7.00
2019-06-07T08:12:00.720Z,7.13
2019-06-07T08:14:28.470Z,6.93
2019-06-07T08:16:57.862Z,6.70
2019-06-07T08:19:25.974Z,6.93
2019-06-07T08:21:55.674Z,7.20
2019-06-07T08:24:23.428Z,6.13
2019-06-07T08:27:13.036Z,7.40
2019-06-07T08:29:20.975Z,6.17
2019-06-07T08:31:50.831Z,7.07
2019-06-07T08:34:18.562Z,5.53
2019-06-07T08:36:46.348Z,5.20
2019-06-07T08:39:14.164Z,6.10
2019-06-07T08:41:54.085Z,6.30
2019-06-07T08:44:23.206Z,5.93
2019-06-07T08:46:41.419Z,5.40
2019-06-07T08:49:09.285Z,5.80
2019-06-07T08:52:03.012Z,5.23
2019-06-07T08:54:26.281Z,5.60
2019-06-07T08:57:06.652Z,4.53
2019-06-07T08:59:23.849Z,5.43
2019-06-07T09:01:53.772Z,4.97
2019-06-07T09:04:21.426Z,5.27
2019-06-07T09:07:18.123Z,5.80
2019-06-07T09:09:19.235Z,4.90
2019-06-07T09:11:47.108Z,4.80
2019-06-07T09:14:14.893Z,5.00
2019-06-07T09:16:42.736Z,4.07
2019-06-07T09:19:11.332Z,3.37
2019-06-07T09:21:40.380Z,4.23
2019-06-07T09:24:11.487Z,4.20
2019-06-07T09:26:37.912Z,3.43
2019-06-07T09:29:09.443Z,4.60
2019-06-07T09:31:51.889Z,4.90
2019-06-07T09:34:13.725Z,5.10
2019-06-07T09:36:34.884Z,4.10
2019-06-07T09:39:08.303Z,4.63
2019-06-07T09:41:47.328Z,4.47
2019-06-07T09:44:21.326Z,4.70
2019-06-07T09:46:34.678Z,4.13
2019-06-07T09:49:18.750Z,4.07
2019-06-07T09:51:32.294Z,4.37
2019-06-07T09:54:01.233Z,4.50
2019-06-07T09:56:29.897Z,4.63
2019-06-07T09:58:59.488Z,4.17
2019-06-07T10:01:27.464Z,4.00
2019-06-07T10:03:55.276Z,3.90
2019-06-07T10:06:23.085Z,5.47
2019-06-07T10:11:20.647Z,4.87
2019-06-07T10:13:48.446Z,4.00
2019-06-07T10:16:16.277Z,3.70
2019-06-07T10:18:44.051Z,4.93
2019-06-07T10:21:15.008Z,4.33
2019-06-07T10:23:41.924Z,3.30
2019-06-07T10:26:10.145Z,4.10
2019-06-07T10:28:38.122Z,4.73
2019-06-07T10:31:07.799Z,5.53
2019-06-07T10:33:35.647Z,4.90
2019-06-07T10:36:04.482Z,4.07
2019-06-07T10:38:32.371Z,4.60
2019-06-07T10:41:00.791Z,4.30
2019-06-07T10:43:28.841Z,5.10
2019-06-07T10:45:56.607Z,3.73
2019-06-07T10:48:25.189Z,3.87
2019-06-07T10:50:53.082Z,4.27
2019-06-07T10:53:20.906Z,4.40
2019-06-07T10:55:48.727Z,4.20
2019-06-07T10:58:16.521Z,4.33
2019-06-07T11:00:44.303Z,4.33
2019-06-07T11:03:12.123Z,4.37
2019-06-07T11:05:41.445Z,4.47
2019-06-07T11:08:10.271Z,4.90
2019-06-07T11:10:38.366Z,4.90
2019-06-07T11:13:06.178Z,4.30
2019-06-07T11:15:33.993Z,4.10
2019-06-07T11:18:01.910Z,4.37
2019-06-07T11:20:29.827Z,4.67
2019-06-07T11:22:57.598Z,3.97
2019-06-07T11:25:25.411Z,5.80
2019-06-07T11:27:53.296Z,4.63
2019-06-07T11:30:21.143Z,4.93
2019-06-07T11:32:49.004Z,5.00
2019-06-07T11:35:17.151Z,4.63
2019-06-07T11:37:44.957Z,5.00
2019-06-07T11:40:35.532Z,5.20
2019-06-07T11:42:42.601Z,3.67
2019-06-07T11:45:12.715Z,4.67
2019-06-07T11:47:40.359Z,4.60
2019-06-07T11:50:11.589Z,4.30
2019-06-07T11:52:39.829Z,4.97
2019-06-07T11:55:08.994Z,4.60
2019-06-07T11:57:37.114Z,4.13
2019-06-07T12:00:09.376Z,4.40
2019-06-07T12:02:37.363Z,4.90
2019-06-07T12:05:05.260Z,4.00
2019-06-07T12:07:33.058Z,4.90
2019-06-07T12:10:00.862Z,4.70
2019-06-07T12:12:28.723Z,4.20
2019-06-07T12:14:56.471Z,4.23
2019-06-07T12:17:24.383Z,3.73
2019-06-07T12:19:55.070Z,4.17
2019-06-07T12:22:22.909Z,5.10
2019-06-07T12:24:50.771Z,4.67
2019-06-07T12:27:18.903Z,4.67
2019-06-07T12:29:46.673Z,4.63
2019-06-07T12:32:15.380Z,4.60
2019-06-07T12:34:43.327Z,5.20
2019-06-07T12:37:11.771Z,4.77
2019-06-07T12:39:39.908Z,5.30
2019-06-07T12:42:07.717Z,5.33
2019-06-07T12:44:35.480Z,5.03
2019-06-07T12:47:03.269Z,4.80
2019-06-07T12:49:31.056Z,5.23
2019-06-07T12:51:58.879Z,5.40
2019-06-07T12:54:26.690Z,5.80
2019-06-07T12:56:54.571Z,5.57
2019-06-07T12:59:22.784Z,4.57
2019-06-07T13:01:51.782Z,5.27
2019-06-07T13:04:20.529Z,5.10
2019-06-07T13:06:48.414Z,5.13
2019-06-07T13:09:17.428Z,5.07
2019-06-07T13:11:45.684Z,5.23
2019-06-07T13:14:13.495Z,5.13
2019-06-07T13:16:41.324Z,5.13
2019-06-07T13:19:09.134Z,5.20
2019-06-07T13:21:37.057Z,5.13
2019-06-07T13:24:04.889Z,5.27
2019-06-07T13:26:35.445Z,4.80
2019-06-07T13:29:03.781Z,5.53
2019-06-07T13:31:31.557Z,5.87
2019-06-07T13:33:59.400Z,5.00
2019-06-07T13:36:28.260Z,5.10
2019-06-07T13:38:56.535Z,4.93
2019-06-07T13:41:36.542Z,6.40
2019-06-07T13:43:54.058Z,4.40
2019-06-07T13:46:23.132Z,4.23
2019-06-07T13:48:51.248Z,5.57
2019-06-07T13:51:21.174Z,5.40
2019-06-07T13:53:48.932Z,5.43
2019-06-07T13:56:17.771Z,4.60
2019-06-07T13:58:45.806Z,5.30
2019-06-07T14:01:13.634Z,5.23
2019-06-07T14:03:41.426Z,5.37
2019-06-07T14:06:09.259Z,5.30
2019-06-07T14:08:37.164Z,5.47
2019-06-07T14:11:05.017Z,4.97
2019-06-07T14:13:32.829Z,5.70
2019-06-07T14:16:00.658Z,5.23
2019-06-07T14:18:28.767Z,5.43
2019-06-07T14:20:58.921Z,5.23
2019-06-07T14:23:43.721Z,4.80
2019-06-07T14:25:56.264Z,5.50
2019-06-07T14:28:27.718Z,5.13
2019-06-07T14:30:53.863Z,5.80
2019-06-07T14:33:23.621Z,5.20
2019-06-07T14:35:54.795Z,5.57
2019-06-07T14:38:23.162Z,5.40
2019-06-07T14:40:50.979Z,5.03
2019-06-07T14:43:19.167Z,5.30
2019-06-07T14:45:47.020Z,4.80
2019-06-07T14:48:14.858Z,4.23
2019-06-07T14:50:42.690Z,4.80
2019-06-07T14:53:10.544Z,4.90
2019-06-07T14:55:38.308Z,5.30
2019-06-07T14:58:06.146Z,4.17
2019-06-07T15:00:43.095Z,5.60
2019-06-07T15:03:11.185Z,5.50
2019-06-07T15:05:40.505Z,5.20
2019-06-07T15:08:08.576Z,5.43
2019-06-07T15:10:36.365Z,5.20
2019-06-07T15:13:04.333Z,7.10
2019-06-07T15:15:32.743Z,7.60
2019-06-07T15:18:00.855Z,7.03
2019-06-07T15:20:30.301Z,6.87
2019-06-07T15:22:58.371Z,6.10
2019-06-07T15:25:27.067Z,17.20
2019-06-07T15:27:55.056Z,9.20
2019-06-07T15:30:22.890Z,5.60
2019-06-07T15:32:50.722Z,46.07
2019-06-07T15:35:18.506Z,12.50
2019-06-07T15:37:48.098Z,9.53
2019-06-07T15:40:16.426Z,13.43
2019-06-07T15:42:52.369Z,16.43
2019-06-07T15:45:14.023Z,12.13
2019-06-07T15:47:41.804Z,17.73
2019-06-07T15:50:10.520Z,14.80
2019-06-07T15:52:40.258Z,22.10
2019-06-07T15:55:09.992Z,6.00
2019-06-07T15:57:39.325Z,12.53
2019-06-07T16:00:10.903Z,8.07
2019-06-07T16:02:39.745Z,9.77
2019-06-07T16:05:07.850Z,9.30
2019-06-07T16:07:36.241Z,7.70
2019-06-07T16:10:05.563Z,7.57
2019-06-07T16:12:34.536Z,8.30
2019-06-07T16:15:05.396Z,22.23
2019-06-07T16:17:33.305Z,10.10
2019-06-07T16:20:01.131Z,12.03
2019-06-07T16:22:28.920Z,8.77
2019-06-07T16:24:56.742Z,15.00
2019-06-07T16:27:24.586Z,9.40
2019-06-07T16:29:52.465Z,13.13
2019-06-07T16:32:20.269Z,12.73
2019-06-07T16:34:48.170Z,6.47
2019-06-07T16:37:16.128Z,7.47
2019-06-07T16:39:44.785Z,8.13
2019-06-07T16:42:12.816Z,6.20
2019-06-07T16:44:40.750Z,6.20
2019-06-07T16:47:08.649Z,8.23
2019-06-07T16:49:36.756Z,5.60
2019-06-07T16:52:04.967Z,5.80
2019-06-07T16:54:35.534Z,5.60
2019-06-07T16:57:02.587Z,8.03
2019-06-07T16:59:30.361Z,5.07
2019-06-07T17:01:58.312Z,5.17
2019-06-07T17:04:26.227Z,5.63
2019-06-07T17:06:54.094Z,6.87
2019-06-07T17:09:21.927Z,9.57
2019-06-07T17:11:49.965Z,7.27
2019-06-07T17:14:17.768Z,5.30
2019-06-07T17:16:46.159Z,6.10
2019-06-07T17:19:15.293Z,6.90
2019-06-07T17:21:43.376Z,7.90
2019-06-07T17:24:11.384Z,6.43
2019-06-07T17:26:39.445Z,7.20
2019-06-07T17:29:07.421Z,6.97
2019-06-07T17:31:35.229Z,7.63
2019-06-07T17:34:03.044Z,6.97
2019-06-07T17:36:30.988Z,6.60
2019-06-07T17:38:58.792Z,4.80
2019-06-07T17:41:26.653Z,4.30
2019-06-07T17:43:59.781Z,4.30
2019-06-07T17:46:24.230Z,5.07
2019-06-07T17:48:52.065Z,3.70
2019-06-07T17:51:19.926Z,4.33
2019-06-07T17:53:47.859Z,3.53
2019-06-07T17:56:15.679Z,2.67
2019-06-07T17:58:44.324Z,1.90
2019-06-07T18:01:12.163Z,1.23
2019-06-07T18:03:39.980Z,2.30
2019-06-07T18:06:07.823Z,1.70
2019-06-07T18:08:35.739Z,1.03
2019-06-07T18:11:03.577Z,1.40
2019-06-07T18:13:31.907Z,1.20
2019-06-07T18:16:00.109Z,1.60
2019-06-07T18:18:28.223Z,1.80
2019-06-07T18:20:56.278Z,1.67
2019-06-07T18:23:24.246Z,1.80
2019-06-07T18:25:52.596Z,2.23
2019-06-07T18:28:20.908Z,1.83
2019-06-07T18:30:48.899Z,1.60
2019-06-07T18:33:16.991Z,1.37
2019-06-07T18:35:45.060Z,1.07
2019-06-07T18:38:12.986Z,1.43
2019-06-07T18:40:41.483Z,1.23
2019-06-07T18:43:09.306Z,1.43
2019-06-07T18:45:37.326Z,1.10
2019-06-07T18:48:05.667Z,1.10
2019-06-07T18:50:34.004Z,0.90
2019-06-07T18:53:01.972Z,2.37
2019-06-07T18:55:29.737Z,1.50
2019-06-07T18:57:58.533Z,3.20
2019-06-07T19:00:28.570Z,1.83
2019-06-07T19:02:56.380Z,1.50
2019-06-07T19:05:24.371Z,1.00
2019-06-07T19:07:52.580Z,1.20
2019-06-07T19:10:22.638Z,1.10
2019-06-07T19:12:50.916Z,1.27
2019-06-07T19:15:21.273Z,1.27
2019-06-07T19:17:49.761Z,1.10
2019-06-07T19:20:18.508Z,1.10
2019-06-07T19:22:46.312Z,1.43
2019-06-07T19:25:15.381Z,2.33
2019-06-07T19:27:43.165Z,2.17
2019-06-07T19:30:13.282Z,1.50
2019-06-07T19:32:41.106Z,1.80
2019-06-07T19:35:09.642Z,1.47
2019-06-07T19:37:37.439Z,2.13
2019-06-07T19:40:06.627Z,2.43
2019-06-07T19:42:34.430Z,1.67
2019-06-07T19:45:27.059Z,1.60
2019-06-07T19:47:32.082Z,1.90
2019-06-07T19:50:00.941Z,1.37
2019-06-07T19:52:28.852Z,1.53
2019-06-07T19:54:57.589Z,1.00
2019-06-07T19:57:25.629Z,1.50
2019-06-07T19:59:53.531Z,1.60
2019-06-07T20:02:21.365Z,1.57
2019-06-07T20:04:49.147Z,1.33
2019-06-07T20:07:16.971Z,1.70
2019-06-07T20:09:44.794Z,1.80
2019-06-07T20:12:12.636Z,1.53
2019-06-07T20:14:40.453Z,1.10
2019-06-07T20:17:08.217Z,0.90
2019-06-07T20:19:36.052Z,1.40
2019-06-07T20:22:05.386Z,1.10
2019-06-07T20:24:33.569Z,1.70
2019-06-07T20:27:02.336Z,1.57
2019-06-07T20:29:30.325Z,1.37
2019-06-07T20:31:58.302Z,1.80
2019-06-07T20:34:26.135Z,1.10
2019-06-07T20:36:54.130Z,1.63
2019-06-07T20:39:21.972Z,1.60
2019-06-07T20:41:49.781Z,1.10
2019-06-07T20:44:17.646Z,1.50
2019-06-07T20:46:45.455Z,0.97
2019-06-07T20:49:13.348Z,1.60
2019-06-07T20:51:41.177Z,1.50
2019-06-07T20:54:09.197Z,1.80
2019-06-07T20:56:37.097Z,1.43
2019-06-07T20:59:05.038Z,1.40
2019-06-07T21:01:33.056Z,1.50
2019-06-07T21:04:01.139Z,1.70
2019-06-07T21:06:29.074Z,1.33
2019-06-07T21:08:56.966Z,1.47
2019-06-07T21:11:24.844Z,1.63
2019-06-07T21:13:52.699Z,1.90
2019-06-07T21:16:20.525Z,1.73
2019-06-07T21:18:48.487Z,1.17
2019-06-07T21:21:16.391Z,1.43
2019-06-07T21:23:44.292Z,1.50
2019-06-07T21:26:12.189Z,1.60
2019-06-07T21:28:40.031Z,1.20
2019-06-07T21:31:10.456Z,1.23
2019-06-07T21:33:38.640Z,1.03
2019-06-07T21:36:07.808Z,1.00
2019-06-07T21:38:35.780Z,1.60
2019-06-07T21:41:04.173Z,1.50
2019-06-07T21:43:32.321Z,1.20
2019-06-07T21:46:05.510Z,1.50
2019-06-07T21:48:31.110Z,1.20
2019-06-07T21:50:58.995Z,1.40
2019-06-07T21:53:26.827Z,2.10
2019-06-07T21:55:54.783Z,1.20
2019-06-07T21:58:24.568Z,1.20
2019-06-07T22:01:15.238Z,1.60
2019-06-07T22:03:43.272Z,1.63
2019-06-07T22:06:11.704Z,1.10
2019-06-07T22:08:39.864Z,1.10
2019-06-07T22:11:08.206Z,1.90
2019-06-07T22:13:36.274Z,0.90
2019-06-07T22:16:04.172Z,1.20
2019-06-07T22:18:32.284Z,1.67
2019-06-07T22:21:00.140Z,1.50
2019-06-07T22:23:27.976Z,2.10
2019-06-07T22:25:55.901Z,1.30
2019-06-07T22:28:23.807Z,1.80
2019-06-07T22:30:51.678Z,1.13
2019-06-07T22:33:19.520Z,1.60
2019-06-07T22:35:47.346Z,1.10
2019-06-07T22:38:15.170Z,1.37
2019-06-07T22:40:42.963Z,1.40
2019-06-07T22:43:11.846Z,1.30
2019-06-07T22:45:39.904Z,1.40
2019-06-07T22:48:08.862Z,0.93
2019-06-07T22:50:36.783Z,1.20
2019-06-07T22:53:04.597Z,1.10
2019-06-07T22:55:32.435Z,1.17
2019-06-07T22:58:00.456Z,1.30
2019-06-07T23:00:30.081Z,1.30
2019-06-07T23:02:59.790Z,1.60
2019-06-07T23:05:27.689Z,1.40
2019-06-07T23:07:55.490Z,1.33
2019-06-07T23:10:23.424Z,1.80
2019-06-07T23:12:51.213Z,1.43
2019-06-07T23:15:20.758Z,1.03
2019-06-07T23:17:48.745Z,1.40
2019-06-07T23:20:18.051Z,0.97
2019-06-07T23:22:45.996Z,1.03
2019-06-07T23:25:17.655Z,1.30
2019-06-07T23:27:45.479Z,1.17
2019-06-07T23:30:16.520Z,0.87
2019-06-07T23:32:44.500Z,1.00
2019-06-07T23:35:14.889Z,1.60
2019-06-07T23:37:42.759Z,1.10
2019-06-07T23:40:14.965Z,1.20
2019-06-07T23:42:43.149Z,1.20
2019-06-07T23:45:11.998Z,1.40
2019-06-07T23:47:40.842Z,1.63
2019-06-07T23:50:09.542Z,1.00
2019-06-07T23:52:37.338Z,1.10
2019-06-07T23:55:08.421Z,1.03
2019-06-07T23:57:36.248Z,0.90
